createdAt,value
2018-09-05T00:00:57.072Z,100238.20
2018-09-05T00:03:25.914Z,100238.25
2018-09-05T00:05:54.690Z,100235.58
2018-09-05T00:08:23.493Z,100238.84
2018-09-05T00:10:52.270Z,100239.12
2018-09-05T00:13:21.006Z,100237.37
2018-09-05T00:15:49.869Z,100239.73
2018-09-05T00:18:18.654Z,100235.23
2018-09-05T00:20:47.435Z,100237.86
2018-09-05T00:23:16.218Z,100231.84
2018-09-05T00:25:45.001Z,100231.95
2018-09-05T00:28:13.810Z,100232.27
2018-09-05T00:30:42.693Z,100229.02
2018-09-05T00:33:11.619Z,100230.19
2018-09-05T00:35:40.454Z,100229.12
2018-09-05T00:38:09.270Z,100222.12
2018-09-05T00:40:38.185Z,100224.11
2018-09-05T00:43:07.083Z,100219.92
2018-09-05T00:45:35.854Z,100221.14
2018-09-05T00:48:04.773Z,100223.02
2018-09-05T00:50:33.543Z,100218.45
2018-09-05T00:53:02.363Z,100220.80
2018-09-05T00:55:31.157Z,100224.13
2018-09-05T00:57:59.937Z,100220.42
2018-09-05T01:00:28.741Z,100223.49
2018-09-05T01:02:57.566Z,100225.47
2018-09-05T01:05:26.349Z,100227.16
2018-09-05T01:08:12.086Z,100223.36
2018-09-05T01:10:40.913Z,100219.10
2018-09-05T01:13:10.370Z,100222.94
2018-09-05T01:15:40.214Z,100222.12
2018-09-05T01:18:08.943Z,100227.67
2018-09-05T01:20:37.780Z,100221.22
2018-09-05T01:23:06.550Z,100231.53
2018-09-05T01:25:35.422Z,100230.00
2018-09-05T01:28:04.343Z,100227.80
2018-09-05T01:30:33.030Z,100228.17
2018-09-05T01:33:01.872Z,100230.10
2018-09-05T01:35:30.697Z,100234.41
2018-09-05T01:37:59.531Z,100236.20
2018-09-05T01:40:28.363Z,100230.95
2018-09-05T01:42:57.396Z,100233.37
2018-09-05T01:45:26.301Z,100237.67
2018-09-05T01:47:55.591Z,100233.59
2018-09-05T01:50:29.645Z,100234.56
2018-09-05T01:52:58.465Z,100237.67
2018-09-05T01:55:27.903Z,100236.23
2018-09-05T01:57:56.873Z,100229.05
2018-09-05T02:00:30.674Z,100232.84
2018-09-05T02:02:59.742Z,100232.16
2018-09-05T02:05:28.613Z,100231.20
2018-09-05T02:07:57.413Z,100228.55
2018-09-05T02:10:26.165Z,100234.56
2018-09-05T02:12:55.018Z,100231.30
2018-09-05T02:15:23.852Z,100232.68
2018-09-05T02:17:52.921Z,100230.75
2018-09-05T02:20:21.764Z,100225.86
2018-09-05T02:22:50.682Z,100237.17
2018-09-05T02:25:19.520Z,100228.42
2018-09-05T02:27:48.310Z,100236.54
2018-09-05T02:30:17.176Z,100236.75
2018-09-05T02:32:46.004Z,100239.35
2018-09-05T02:35:15.249Z,100233.34
2018-09-05T02:37:44.261Z,100238.06
2018-09-05T02:40:13.262Z,100233.08
2018-09-05T02:42:42.027Z,100231.20
2018-09-05T03:02:25.788Z,100218.88
2018-09-05T03:04:54.839Z,100243.49
2018-09-05T03:07:23.566Z,100239.11
2018-09-05T03:09:52.421Z,100238.31
2018-09-05T03:12:22.161Z,100235.07
2018-09-05T03:14:52.402Z,100229.86
2018-09-05T03:17:21.778Z,100236.44
2018-09-05T03:19:50.581Z,100235.51
2018-09-05T03:22:19.353Z,100232.09
2018-09-05T03:24:48.217Z,100232.65
2018-09-05T03:27:17.018Z,100232.92
2018-09-05T03:29:45.864Z,100230.72
2018-09-05T03:32:14.825Z,100230.48
2018-09-05T03:34:43.606Z,100230.84
2018-09-05T03:37:12.400Z,100230.30
2018-09-05T03:39:41.197Z,100233.86
2018-09-05T03:42:10.050Z,100231.91
2018-09-05T03:44:38.843Z,100235.28
2018-09-05T03:47:07.646Z,100239.44
2018-09-05T03:49:36.463Z,100186.10
2018-09-05T03:52:05.289Z,100229.04
2018-09-05T03:54:34.103Z,100233.20
2018-09-05T03:57:03.011Z,100228.80
2018-09-05T03:59:31.901Z,100227.47
2018-09-05T04:02:00.946Z,100230.22
2018-09-05T04:04:29.737Z,100230.77
2018-09-05T04:06:58.542Z,100231.98
2018-09-05T04:09:27.567Z,100239.42
2018-09-05T04:11:56.489Z,100241.27
2018-09-05T04:14:25.392Z,100238.56
2018-09-05T04:16:54.282Z,100234.64
2018-09-05T04:19:23.231Z,100231.19
2018-09-05T04:21:52.727Z,100234.13
2018-09-05T04:24:21.705Z,100225.16
2018-09-05T04:26:50.506Z,100229.85
2018-09-05T04:29:19.385Z,100226.87
2018-09-05T04:31:48.222Z,100227.02
2018-09-05T04:34:17.161Z,100225.17
2018-09-05T04:36:45.918Z,100224.69
2018-09-05T04:39:14.808Z,100226.72
2018-09-05T04:41:43.601Z,100224.83
2018-09-05T04:44:12.373Z,100226.03
2018-09-05T04:46:41.122Z,100223.49
2018-09-05T04:51:46.317Z,100219.27
2018-09-05T04:54:15.209Z,100225.86
2018-09-05T04:56:44.160Z,100224.52
2018-09-05T04:59:12.974Z,100230.92
2018-09-05T05:01:41.766Z,100232.30
2018-09-05T05:04:10.641Z,100232.27
2018-09-05T05:06:39.595Z,100230.89
2018-09-05T05:09:11.906Z,100229.48
2018-09-05T05:11:42.020Z,100240.00
2018-09-05T05:14:11.296Z,100235.55
2018-09-05T05:16:40.056Z,100238.59
2018-09-05T05:19:08.928Z,100240.86
2018-09-05T05:21:37.874Z,100243.23
2018-09-05T05:24:06.751Z,100242.06
2018-09-05T05:26:35.478Z,100248.59
2018-09-05T05:29:04.107Z,100247.61
2018-09-05T05:31:32.852Z,100249.44
2018-09-05T05:34:01.473Z,100251.63
2018-09-05T05:36:30.212Z,100249.41
2018-09-05T05:38:58.889Z,100252.91
2018-09-05T05:41:27.773Z,100254.34
2018-09-05T05:43:56.357Z,100251.06
2018-09-05T05:46:24.946Z,100250.13
2018-09-05T05:48:53.337Z,100251.33
2018-09-05T05:51:21.793Z,100256.88
2018-09-05T05:53:50.202Z,100260.73
2018-09-05T05:56:18.660Z,100254.45
2018-09-05T05:58:47.141Z,100253.00
2018-09-05T06:01:15.664Z,100254.67
2018-09-05T06:03:44.915Z,100258.67
2018-09-05T06:06:14.203Z,100259.17
2018-09-05T06:08:55.235Z,100261.85
2018-09-05T06:11:23.935Z,100269.52
2018-09-05T06:13:52.572Z,100265.30
2018-09-05T06:16:21.283Z,100262.45
2018-09-05T06:18:49.973Z,100259.88
2018-09-05T06:21:18.629Z,100262.32
2018-09-05T06:23:47.241Z,100266.12
2018-09-05T06:26:15.897Z,100267.20
2018-09-05T06:28:44.497Z,100265.71
2018-09-05T06:31:13.296Z,100262.97
2018-09-05T06:33:41.810Z,100266.77
2018-09-05T06:36:10.477Z,100268.91
2018-09-05T06:38:39.076Z,100279.44
2018-09-05T06:41:07.871Z,100275.42
2018-09-05T06:43:36.534Z,100277.97
2018-09-05T06:46:05.271Z,100281.44
2018-09-05T06:48:34.031Z,100275.75
2018-09-05T06:51:05.895Z,100270.86
2018-09-05T06:53:36.675Z,100275.24
2018-09-05T06:56:05.507Z,100274.80
2018-09-05T06:58:34.566Z,100275.71
2018-09-05T07:01:03.341Z,100273.95
2018-09-05T07:03:38.534Z,100276.92
2018-09-05T07:06:07.029Z,100280.81
2018-09-05T07:08:35.449Z,100281.81
2018-09-05T07:11:03.865Z,100281.94
2018-09-05T07:13:32.382Z,100277.87
2018-09-05T07:16:00.852Z,100279.50
2018-09-05T07:18:29.445Z,100281.79
2018-09-05T07:21:05.681Z,100282.11
2018-09-05T07:23:26.513Z,100284.42
2018-09-05T07:25:54.939Z,100276.77
2018-09-05T07:28:23.447Z,100274.50
2018-09-05T07:30:51.853Z,100265.05
2018-09-05T07:33:20.304Z,100272.97
2018-09-05T07:35:48.713Z,100267.08
2018-09-05T07:38:17.173Z,100276.38
2018-09-05T07:40:45.594Z,100274.77
2018-09-05T07:43:14.041Z,100271.45
2018-09-05T07:45:42.505Z,100273.34
2018-09-05T07:48:10.978Z,100275.45
2018-09-05T07:50:39.457Z,100278.05
2018-09-05T07:53:07.881Z,100274.80
2018-09-05T07:55:36.301Z,100277.32
2018-09-05T07:58:04.993Z,100279.95
2018-09-05T08:00:33.444Z,100278.09
2018-09-05T08:03:01.956Z,100281.84
2018-09-05T08:05:30.417Z,100277.20
2018-09-05T08:07:58.907Z,100282.43
2018-09-05T08:10:27.377Z,100276.33
2018-09-05T08:12:55.829Z,100277.46
2018-09-05T08:15:24.264Z,100280.02
2018-09-05T08:17:52.713Z,100270.47
2018-09-05T08:20:21.259Z,100282.38
2018-09-05T08:22:49.707Z,100275.30
2018-09-05T08:25:18.166Z,100277.95
2018-09-05T08:27:46.661Z,100273.25
2018-09-05T08:30:15.088Z,100277.55
2018-09-05T08:32:43.566Z,100277.97
2018-09-05T08:35:12.247Z,100270.29
2018-09-05T08:37:40.650Z,100269.12
2018-09-05T08:40:08.975Z,100270.75
2018-09-05T08:42:38.054Z,100269.95
2018-09-05T08:45:07.300Z,100273.55
2018-09-05T08:47:35.626Z,100272.59
2018-09-05T08:50:04.106Z,100273.44
2018-09-05T08:52:32.495Z,100274.01
2018-09-05T08:55:01.110Z,100275.29
2018-09-05T08:57:29.554Z,100269.70
2018-09-05T08:59:58.031Z,100269.38
2018-09-05T09:02:26.514Z,100270.95
2018-09-05T09:04:54.987Z,100274.20
2018-09-05T09:07:28.622Z,100274.22
2018-09-05T09:09:57.156Z,100269.78
2018-09-05T09:12:25.730Z,100278.85
2018-09-05T09:14:57.154Z,100271.00
2018-09-05T09:17:25.565Z,100271.01
2018-09-05T09:19:54.009Z,100271.55
2018-09-05T09:22:22.409Z,100267.89
2018-09-05T09:24:50.937Z,100266.55
2018-09-05T09:27:19.409Z,100262.27
2018-09-05T09:29:47.926Z,100263.58
2018-09-05T09:32:16.374Z,100263.05
2018-09-05T09:34:44.802Z,100259.34
2018-09-05T09:37:13.322Z,100258.67
2018-09-05T09:39:41.771Z,100257.34
2018-09-05T09:42:10.181Z,100252.29
2018-09-05T09:44:38.647Z,100246.16
2018-09-05T09:47:07.128Z,100249.95
2018-09-05T09:49:35.585Z,100252.80
2018-09-05T09:52:09.368Z,100250.52
2018-09-05T09:54:37.896Z,100245.91
2018-09-05T09:57:06.309Z,100237.35
2018-09-05T09:59:34.802Z,100238.55
2018-09-05T10:02:08.378Z,100242.67
2018-09-05T10:04:42.210Z,100234.89
2018-09-05T10:07:15.810Z,100237.55
2018-09-05T10:09:49.573Z,100231.04
2018-09-05T10:12:23.098Z,100224.17
2018-09-05T10:14:58.574Z,100233.08
2018-09-05T10:17:31.125Z,100229.16
2018-09-05T10:20:00.514Z,100229.92
2018-09-05T10:22:29.826Z,100224.05
2018-09-05T10:24:58.376Z,100224.75
2018-09-05T10:27:27.686Z,100227.93
2018-09-05T10:29:56.548Z,100223.59
2018-09-05T10:32:25.589Z,100214.58
2018-09-05T10:34:54.844Z,100213.50
2018-09-05T10:37:23.261Z,100212.72
2018-09-05T10:39:51.734Z,100210.55
2018-09-05T10:42:20.240Z,100206.81
2018-09-05T10:44:48.681Z,100207.64
2018-09-05T10:47:17.169Z,100213.36
2018-09-05T10:49:45.613Z,100208.65
2018-09-05T10:52:14.031Z,100206.09
2018-09-05T10:54:42.478Z,100205.86
2018-09-05T10:57:10.923Z,100207.87
2018-09-05T10:59:39.417Z,100205.48
2018-09-05T11:02:07.896Z,100204.70
2018-09-05T11:04:36.370Z,100202.71
2018-09-05T11:07:04.919Z,100207.63
2018-09-05T11:09:33.386Z,100199.94
2018-09-05T11:12:01.867Z,100201.97
2018-09-05T11:14:30.289Z,100199.34
2018-09-05T11:16:58.778Z,100196.95
2018-09-05T11:19:27.261Z,100196.41
2018-09-05T11:21:55.666Z,100190.09
2018-09-05T11:24:24.157Z,100192.78
2018-09-05T11:26:52.584Z,100190.64
2018-09-05T11:29:20.997Z,100186.54
2018-09-05T11:31:49.434Z,100189.73
2018-09-05T11:34:17.877Z,100182.10
2018-09-05T11:36:46.286Z,100177.25
2018-09-05T11:39:15.079Z,100177.22
2018-09-05T11:41:43.535Z,100173.48
2018-09-05T11:44:11.976Z,100169.19
2018-09-05T11:46:40.408Z,100170.69
2018-09-05T11:49:09.591Z,100165.06
2018-09-05T11:51:38.205Z,100161.95
2018-09-05T11:54:07.239Z,100164.30
2018-09-05T11:56:35.699Z,100162.11
2018-09-05T11:59:04.221Z,100161.32
2018-09-05T12:01:32.675Z,100157.03
2018-09-05T12:04:01.171Z,100163.57
2018-09-05T12:06:29.605Z,100160.33
2018-09-05T12:08:58.041Z,100161.21
2018-09-05T12:11:26.485Z,100159.95
2018-09-05T12:13:54.902Z,100159.52
2018-09-05T12:16:23.354Z,100161.11
2018-09-05T12:18:51.878Z,100161.24
2018-09-05T12:21:20.347Z,100151.45
2018-09-05T12:23:48.788Z,100151.58
2018-09-05T12:26:17.238Z,100145.89
2018-09-05T12:28:45.661Z,100143.36
2018-09-05T12:31:14.141Z,100144.91
2018-09-05T12:33:42.568Z,100138.58
2018-09-05T12:36:11.000Z,100128.37
2018-09-05T12:38:39.434Z,100124.13
2018-09-05T12:41:07.931Z,100122.41
2018-09-05T12:43:36.326Z,100123.58
2018-09-05T12:46:05.085Z,100124.39
2018-09-05T12:48:33.481Z,100117.64
2018-09-05T12:51:01.965Z,100115.66
2018-09-05T12:53:30.409Z,100107.95
2018-09-05T12:55:58.867Z,100110.19
2018-09-05T12:58:27.342Z,100114.46
2018-09-05T13:00:55.830Z,100104.00
2018-09-05T13:03:24.249Z,100104.36
2018-09-05T13:05:52.700Z,100103.14
2018-09-05T13:08:21.139Z,100098.81
2018-09-05T13:10:49.575Z,100101.81
2018-09-05T13:13:17.967Z,100097.99
2018-09-05T13:15:46.444Z,100097.37
2018-09-05T13:18:14.871Z,100090.31
2018-09-05T13:20:43.309Z,100088.34
2018-09-05T13:23:11.870Z,100086.45
2018-09-05T13:25:40.346Z,100092.95
2018-09-05T13:28:08.859Z,100093.23
2018-09-05T13:30:37.289Z,100087.56
2018-09-05T13:33:05.739Z,100086.19
2018-09-05T13:35:34.398Z,100080.92
2018-09-05T13:38:09.355Z,100082.59
2018-09-05T13:40:37.849Z,100079.56
2018-09-05T13:43:06.286Z,100074.45
2018-09-05T13:45:34.745Z,100077.59
2018-09-05T13:48:03.205Z,100077.42
2018-09-05T13:50:31.710Z,100070.13
2018-09-05T13:53:00.103Z,100062.49
2018-09-05T13:55:28.546Z,100068.31
2018-09-05T13:57:56.959Z,100068.30
2018-09-05T14:00:25.442Z,100064.30
2018-09-05T14:02:53.979Z,100065.23
2018-09-05T14:05:22.313Z,100056.24
2018-09-05T14:07:50.758Z,100060.42
2018-09-05T14:10:19.199Z,100057.30
2018-09-05T14:12:48.712Z,100051.08
2018-09-05T14:15:17.197Z,100052.81
2018-09-05T14:17:45.642Z,100049.52
2018-09-05T14:20:14.157Z,100051.64
2018-09-05T14:22:43.282Z,100049.67
2018-09-05T14:25:11.773Z,100040.77
2018-09-05T14:27:40.255Z,100039.63
2018-09-05T14:30:08.769Z,100044.23
2018-09-05T14:32:37.217Z,100047.02
2018-09-05T14:35:05.810Z,100039.36
2018-09-05T14:37:34.297Z,100043.63
2018-09-05T14:40:02.802Z,100040.52
2018-09-05T14:42:31.304Z,100036.05
2018-09-05T14:44:59.722Z,100035.20
2018-09-05T14:47:28.149Z,100030.87
2018-09-05T14:49:56.825Z,100030.84
2018-09-05T14:52:25.279Z,100030.44
2018-09-05T14:54:53.795Z,100036.89
2018-09-05T14:57:22.305Z,100028.41
2018-09-05T14:59:50.784Z,100029.36
2018-09-05T15:02:20.096Z,100029.09
2018-09-05T15:04:48.589Z,100026.95
2018-09-05T15:07:17.376Z,100026.23
2018-09-05T15:09:45.819Z,100021.64
2018-09-05T15:12:14.254Z,100027.31
2018-09-05T15:14:43.213Z,100022.16
2018-09-05T15:17:11.646Z,100022.67
2018-09-05T15:19:40.080Z,100019.73
2018-09-05T15:22:08.586Z,100019.03
2018-09-05T15:24:36.992Z,100013.99
2018-09-05T15:27:05.679Z,100014.95
2018-09-05T15:29:34.139Z,100007.85
2018-09-05T15:32:02.596Z,100014.60
2018-09-05T15:34:31.041Z,100008.52
2018-09-05T15:36:59.466Z,100013.31
2018-09-05T15:39:27.973Z,100007.73
2018-09-05T15:41:56.357Z,100008.98
2018-09-05T15:44:24.790Z,100002.02
2018-09-05T15:46:53.298Z,100001.67
2018-09-05T15:49:21.762Z,99992.41
2018-09-05T15:51:54.585Z,99996.37
2018-09-05T15:54:23.735Z,99996.89
2018-09-05T15:56:52.546Z,99999.09
2018-09-05T15:59:21.309Z,100000.13
2018-09-05T16:01:49.788Z,100004.41
2018-09-05T16:04:18.302Z,100001.95
2018-09-05T16:06:46.854Z,100004.73
2018-09-05T16:09:15.329Z,99999.81
2018-09-05T16:11:43.796Z,100001.12
2018-09-05T16:14:12.250Z,99999.39
2018-09-05T16:16:40.709Z,100004.02
2018-09-05T16:19:09.189Z,100007.25
2018-09-05T16:21:38.294Z,100011.50
2018-09-05T16:24:06.778Z,100007.34
2018-09-05T16:26:35.231Z,100002.27
2018-09-05T16:29:03.832Z,100000.53
2018-09-05T16:31:32.267Z,100004.23
2018-09-05T16:34:00.809Z,100003.09
2018-09-05T16:36:29.350Z,100001.13
2018-09-05T16:38:57.839Z,100000.31
2018-09-05T16:41:26.388Z,99997.42
2018-09-05T16:43:54.937Z,100004.01
2018-09-05T16:46:23.436Z,99995.33
2018-09-05T16:48:51.976Z,99999.38
2018-09-05T16:51:20.460Z,100003.99
2018-09-05T16:53:48.918Z,100004.70
2018-09-05T16:56:17.412Z,100014.35
2018-09-05T16:58:45.885Z,100014.58
2018-09-05T17:01:14.325Z,100016.66
2018-09-05T17:03:42.780Z,100019.22
2018-09-05T17:06:11.285Z,100027.06
2018-09-05T17:08:39.744Z,100037.69
2018-09-05T17:11:08.339Z,100044.27
2018-09-05T17:13:36.790Z,100055.20
2018-09-05T17:16:05.254Z,100065.01
2018-09-05T17:18:33.772Z,100063.73
2018-09-05T17:21:02.246Z,100060.78
2018-09-05T17:23:30.770Z,100062.67
2018-09-05T17:25:59.244Z,100060.59
2018-09-05T17:28:27.817Z,100061.13
2018-09-05T17:30:56.217Z,100063.30
2018-09-05T17:33:24.989Z,100057.09
2018-09-05T17:35:53.438Z,100056.70
2018-09-05T17:38:21.944Z,100043.63
2018-09-05T17:40:50.434Z,100043.41
2018-09-05T17:43:18.898Z,100032.69
2018-09-05T17:45:47.541Z,100037.87
2018-09-05T17:48:16.038Z,100029.06
2018-09-05T17:50:44.495Z,100039.22
2018-09-05T17:53:12.941Z,100039.66
2018-09-05T17:55:41.456Z,100043.91
2018-09-05T17:58:09.955Z,100042.62
2018-09-05T18:00:38.465Z,100037.91
2018-09-05T18:03:07.062Z,100047.22
2018-09-05T18:05:35.617Z,100044.03
2018-09-05T18:08:04.124Z,100039.17
2018-09-05T18:10:32.790Z,100040.68
2018-09-05T18:13:01.745Z,100036.18
2018-09-05T18:15:30.241Z,100034.80
2018-09-05T18:17:58.890Z,100025.56
2018-09-05T18:20:27.446Z,100027.48
2018-09-05T18:22:55.926Z,100034.70
2018-09-05T18:25:24.369Z,100030.56
2018-09-05T18:27:52.841Z,100037.63
2018-09-05T18:30:21.324Z,100041.62
2018-09-05T18:32:49.794Z,100032.16
2018-09-05T18:35:18.335Z,100030.24
2018-09-05T18:37:46.750Z,100020.20
2018-09-05T18:40:15.278Z,100018.99
2018-09-05T18:42:43.721Z,100016.52
2018-09-05T18:45:12.209Z,100012.19
2018-09-05T18:47:40.661Z,100018.75
2018-09-05T18:50:09.179Z,100015.53
2018-09-05T18:52:37.621Z,100011.77
2018-09-05T18:55:06.188Z,100012.53
2018-09-05T18:57:34.652Z,100016.37
2018-09-05T19:00:03.191Z,100010.86
2018-09-05T19:02:31.673Z,100017.98
2018-09-05T19:05:00.328Z,100012.45
2018-09-05T19:07:28.774Z,100010.33
2018-09-05T19:09:57.242Z,100010.53
2018-09-05T19:12:25.892Z,100002.56
2018-09-05T19:17:48.046Z,100002.61
2018-09-05T19:20:16.502Z,100004.98
2018-09-05T19:22:44.951Z,99999.90
2018-09-05T19:25:13.401Z,99998.31
2018-09-05T19:27:41.940Z,99998.99
2018-09-05T19:30:10.419Z,99991.23
2018-09-05T19:32:38.897Z,99987.88
2018-09-05T19:35:07.409Z,99997.84
2018-09-05T19:37:36.633Z,100001.24
2018-09-05T19:40:05.130Z,99996.58
2018-09-05T19:42:33.850Z,99995.14
2018-09-05T19:45:02.329Z,99986.13
2018-09-05T19:47:30.905Z,99990.27
2018-09-05T19:49:59.501Z,99991.64
2018-09-05T19:52:27.986Z,99989.93
2018-09-05T19:54:56.592Z,99981.68
2018-09-05T19:57:25.044Z,99988.63
2018-09-05T19:59:59.195Z,99988.23
2018-09-05T20:02:27.838Z,99988.97
2018-09-05T20:04:56.455Z,99989.98
2018-09-05T20:07:24.992Z,99987.53
2018-09-05T20:09:53.458Z,99990.97
2018-09-05T20:12:21.881Z,99993.15
2018-09-05T20:14:50.338Z,100005.63
2018-09-05T20:17:19.639Z,99997.22
2018-09-05T20:19:48.212Z,99999.41
2018-09-05T20:22:16.641Z,100001.36
2018-09-05T20:24:45.177Z,100018.97
2018-09-05T20:27:13.699Z,100011.39
2018-09-05T20:29:42.168Z,100024.05
2018-09-05T20:32:10.604Z,100025.25
2018-09-05T20:34:39.066Z,100025.66
2018-09-05T20:37:07.653Z,100031.09
2018-09-05T20:39:36.133Z,100031.17
2018-09-05T20:42:04.665Z,100039.22
2018-09-05T20:44:36.467Z,100027.70
2018-09-05T20:47:05.120Z,100031.17
2018-09-05T20:49:33.670Z,100025.33
2018-09-05T20:52:02.129Z,100030.38
2018-09-05T20:54:30.643Z,100037.45
2018-09-05T20:57:05.504Z,100037.52
2018-09-05T20:59:34.009Z,100031.43
2018-09-05T21:02:02.514Z,100032.33
2018-09-05T21:04:36.620Z,100033.09
2018-09-05T21:07:05.282Z,100036.13
2018-09-05T21:09:33.748Z,100032.06
2018-09-05T21:12:02.236Z,100032.22
2018-09-05T21:14:30.697Z,100032.88
2018-09-05T21:16:59.164Z,100020.07
2018-09-05T21:19:27.599Z,100020.30
2018-09-05T21:21:56.049Z,100012.17
2018-09-05T21:24:24.672Z,100010.16
2018-09-05T21:26:53.191Z,100002.45
2018-09-05T21:29:21.618Z,100002.94
2018-09-05T21:31:50.081Z,99999.63
2018-09-05T21:34:18.495Z,99994.11
2018-09-05T21:36:46.973Z,99994.04
2018-09-05T21:39:15.425Z,99995.00
2018-09-05T21:41:43.905Z,100004.42
2018-09-05T21:44:12.406Z,100000.03
2018-09-05T21:46:40.862Z,99997.20
2018-09-05T21:49:09.337Z,99990.06
2018-09-05T21:51:37.791Z,99990.23
2018-09-05T21:54:06.226Z,99992.33
2018-09-05T21:56:34.715Z,99989.16
2018-09-05T21:59:03.246Z,99989.09
2018-09-05T22:01:31.711Z,99985.10
2018-09-05T22:04:00.150Z,99992.81
2018-09-05T22:06:28.562Z,99982.83
2018-09-05T22:08:57.037Z,99988.60
2018-09-05T22:11:26.530Z,99985.29
2018-09-05T22:13:55.742Z,99987.86
2018-09-05T22:16:24.190Z,99986.81
2018-09-05T22:18:52.721Z,99974.56
2018-09-05T22:21:21.181Z,99979.51
2018-09-05T22:23:49.574Z,99981.30
2018-09-05T22:26:18.050Z,99976.48
2018-09-05T22:28:46.502Z,99970.83
2018-09-05T22:31:14.922Z,99981.66
2018-09-05T22:33:43.335Z,99977.12
2018-09-05T22:36:11.829Z,99977.19
2018-09-05T22:38:40.257Z,99977.00
2018-09-05T22:41:08.679Z,99975.06
2018-09-05T22:43:48.599Z,99973.13
2018-09-05T22:46:29.467Z,99971.01
2018-09-05T22:49:11.967Z,99966.39
2018-09-05T22:51:56.515Z,99963.15
2018-09-05T22:54:48.181Z,99963.45
2018-09-05T22:57:39.666Z,99960.80
2018-09-05T23:00:35.862Z,99959.56
2018-09-05T23:07:27.162Z,99962.80
2018-09-05T23:10:06.778Z,99963.73
2018-09-05T23:12:46.306Z,99959.44
2018-09-05T23:15:26.095Z,99966.02
2018-09-05T23:20:12.731Z,99959.55
2018-09-05T23:22:52.364Z,99964.37
2018-09-05T23:25:20.784Z,99959.84
2018-09-05T23:27:49.230Z,99962.10
2018-09-05T23:30:17.705Z,99962.23
2018-09-05T23:32:46.174Z,99959.47
2018-09-05T23:35:14.606Z,99951.34
2018-09-05T23:37:43.317Z,99948.59
2018-09-05T23:40:11.762Z,99947.15
2018-09-05T23:42:40.202Z,99947.90
2018-09-05T23:45:08.718Z,99949.63
2018-09-05T23:47:37.180Z,99946.52
2018-09-05T23:50:05.692Z,99940.73
2018-09-05T23:52:34.163Z,99939.59
2018-09-05T23:55:02.598Z,99938.34
2018-09-05T23:57:31.087Z,99937.36
2018-09-05T23:59:59.548Z,99945.84
